Terminal Aerodrome Forecast
Issued by NWS

Home | Current Version | Previous Version | Text Only | Print | Product List | Glossary On
Versions: 1 2 3 4 5 6 7 8 9 10 11 12 13 14 15 16 17 18 19 20
000
FTUS43 KGRB 302300
TAFMTW
TAF
KMTW 302335Z 3100/3124 30007KT P6SM VCSH SCT025 OVC040
     FM310200 32004KT P6SM BKN035
     FM310500 VRB03KT 4SM BR SCT009 SCT035
      TEMPO 3108/3112 1SM BR BKN009 OVC035
     FM311300 VRB03KT 5SM BR BKN015
     FM311700 14005KT P6SM SCT025=

USA.gov is the U.S. government's official web portal to all federal, state and local government web resources and services.